Time,TemperatureF,DewpointF,PressureIn,WindDirection,WindDirectionDegrees,WindSpeedMPH,WindSpeedGustMPH,Humidity,HourlyPrecipIn,Conditions,Clouds,dailyrainin,SoftwareType,DateUTC
2013-07-17 00:00:00,81.6,72.9,24.02,West,270,0.0,0.0,75,0.00,,,0.00,VWS V13.01,2013-07-17 04:00:00,
2013-07-17 01:00:00,80.8,72.5,24.02,West,270,0.0,0.0,76,0.00,,,0.00,VWS V13.01,2013-07-17 05:00:00,
2013-07-17 02:00:00,79.3,73.3,24.02,West,270,0.0,0.0,82,0.00,,,0.00,VWS V13.01,2013-07-17 06:00:00,
2013-07-17 03:00:00,77.5,73.0,24.02,West,270,0.0,0.0,86,0.00,,,0.00,VWS V13.01,2013-07-17 07:00:00,
2013-07-17 04:00:00,76.1,71.9,24.02,West,270,0.0,0.0,87,0.00,,,0.00,VWS V13.01,2013-07-17 08:00:00,
2013-07-17 05:00:00,75.7,72.2,24.02,West,270,0.0,0.0,89,0.00,,,0.00,VWS V13.01,2013-07-17 09:00:00,
2013-07-17 06:00:00,75.6,72.5,24.02,West,270,0.0,0.0,90,0.00,,,0.00,VWS V13.01,2013-07-17 10:00:00,
2013-07-17 07:00:00,75.7,71.2,24.02,West,270,0.0,0.0,86,0.00,,,0.00,VWS V13.01,2013-07-17 11:00:00,
2013-07-17 08:00:00,81.2,72.5,24.02,West,270,0.0,0.0,75,0.00,,,0.00,VWS V13.01,2013-07-17 12:00:00,
2013-07-17 09:00:00,87.5,73.8,24.02,West,270,0.0,2.0,64,0.00,,,0.00,VWS V13.01,2013-07-17 13:00:00,
2013-07-17 10:00:00,92.2,74.8,24.02,WNW,292,0.0,4.0,57,0.00,,,0.00,VWS V13.01,2013-07-17 14:00:00,
2013-07-17 11:00:00,93.0,74.5,24.02,East,90,0.0,4.0,55,0.00,,,0.00,VWS V13.01,2013-07-17 15:00:00,
2013-07-17 12:00:00,93.5,74.4,24.02,WNW,292,0.0,6.0,54,0.00,,,0.00,VWS V13.01,2013-07-17 16:00:00,
2013-07-17 13:00:00,95.3,73.7,24.02,West,270,0.0,5.0,50,0.00,,,0.00,VWS V13.01,2013-07-17 17:00:00,
2013-07-17 14:00:00,97.2,74.9,24.02,West,270,0.0,4.0,49,0.00,,,0.00,VWS V13.01,2013-07-17 18:00:00,
2013-07-17 15:00:00,95.2,75.4,24.02,West,270,0.0,6.0,53,0.00,,,0.00,VWS V13.01,2013-07-17 19:00:00,
2013-07-17 16:00:00,96.4,75.3,24.02,West,270,0.0,6.0,51,0.00,,,0.00,VWS V13.01,2013-07-17 20:00:00,
2013-07-17 17:00:00,95.0,73.5,24.02,West,270,1.0,8.0,50,0.00,,,0.00,VWS V13.01,2013-07-17 21:00:00,
2013-07-17 18:00:00,96.9,74.6,24.02,West,270,0.0,8.0,49,0.00,,,0.00,VWS V13.01,2013-07-17 22:00:00,
2013-07-17 19:00:00,95.7,75.8,24.02,West,270,0.0,9.0,53,0.00,,,0.00,VWS V13.01,2013-07-17 23:00:00,
2013-07-17 20:00:00,92.2,75.8,24.02,WNW,292,0.0,5.0,59,0.00,,,0.00,VWS V13.01,2013-07-18 00:00:00,
2013-07-17 21:00:00,88.4,74.2,24.02,WNW,292,0.0,0.0,63,0.00,,,0.00,VWS V13.01,2013-07-18 01:00:00,
2013-07-17 22:00:00,86.1,74.8,24.02,WNW,292,0.0,0.0,69,0.00,,,0.00,VWS V13.01,2013-07-18 02:00:00,
2013-07-17 23:00:00,84.8,74.4,24.02,WNW,292,0.0,2.0,71,0.00,,,0.00,VWS V13.01,2013-07-18 03:00:00,